sensor_id;sensor_type;location;lat;lon;timestamp;temperature;humidity
26212;DHT22;13951;49.516;6.094;2024-03-06T00:01:16;5.60;99.90
26212;DHT22;13951;49.516;6.094;2024-03-06T00:03:49;5.60;99.90
26212;DHT22;13951;49.516;6.094;2024-03-06T00:06:23;5.60;99.90
26212;DHT22;13951;49.516;6.094;2024-03-06T00:08:58;5.60;99.90
26212;DHT22;13951;49.516;6.094;2024-03-06T00:11:35;5.60;99.90
26212;DHT22;13951;49.516;6.094;2024-03-06T00:14:09;5.60;99.90
26212;DHT22;13951;49.516;6.094;2024-03-06T00:16:43;5.60;99.90
26212;DHT22;13951;49.516;6.094;2024-03-06T00:19:17;5.60;99.90
26212;DHT22;13951;49.516;6.094;2024-03-06T00:21:50;5.60;99.90
26212;DHT22;13951;49.516;6.094;2024-03-06T00:24:25;5.50;99.90
26212;DHT22;13951;49.516;6.094;2024-03-06T00:26:58;5.60;99.90
26212;DHT22;13951;49.516;6.094;2024-03-06T00:29:32;5.60;99.90
26212;DHT22;13951;49.516;6.094;2024-03-06T00:32:06;5.60;99.90
26212;DHT22;13951;49.516;6.094;2024-03-06T00:34:40;5.60;99.90
26212;DHT22;13951;49.516;6.094;2024-03-06T00:37:15;5.50;99.90
26212;DHT22;13951;49.516;6.094;2024-03-06T00:39:49;5.50;99.90
26212;DHT22;13951;49.516;6.094;2024-03-06T00:42:24;5.40;99.90
26212;DHT22;13951;49.516;6.094;2024-03-06T00:44:57;5.40;99.90
26212;DHT22;13951;49.516;6.094;2024-03-06T00:47:31;5.40;99.90
26212;DHT22;13951;49.516;6.094;2024-03-06T00:50:06;5.40;99.90
26212;DHT22;13951;49.516;6.094;2024-03-06T00:52:40;5.30;99.90
26212;DHT22;13951;49.516;6.094;2024-03-06T00:55:16;5.30;99.90
26212;DHT22;13951;49.516;6.094;2024-03-06T00:57:52;5.20;99.90
26212;DHT22;13951;49.516;6.094;2024-03-06T01:00:26;5.20;99.90
26212;DHT22;13951;49.516;6.094;2024-03-06T01:02:59;5.20;99.90
26212;DHT22;13951;49.516;6.094;2024-03-06T01:05:34;5.10;99.90
26212;DHT22;13951;49.516;6.094;2024-03-06T01:08:07;5.10;99.90
26212;DHT22;13951;49.516;6.094;2024-03-06T01:10:40;5.00;99.90
26212;DHT22;13951;49.516;6.094;2024-03-06T01:13:13;5.00;99.90
26212;DHT22;13951;49.516;6.094;2024-03-06T01:15:47;5.00;99.90
26212;DHT22;13951;49.516;6.094;2024-03-06T01:18:20;5.00;99.90
26212;DHT22;13951;49.516;6.094;2024-03-06T01:20:55;5.00;99.90
26212;DHT22;13951;49.516;6.094;2024-03-06T01:23:28;4.90;99.90
26212;DHT22;13951;49.516;6.094;2024-03-06T01:26:01;4.90;99.90
26212;DHT22;13951;49.516;6.094;2024-03-06T01:28:36;4.90;99.90
26212;DHT22;13951;49.516;6.094;2024-03-06T01:31:10;4.80;99.90
26212;DHT22;13951;49.516;6.094;2024-03-06T01:33:43;4.80;99.90
26212;DHT22;13951;49.516;6.094;2024-03-06T01:36:17;4.80;99.90
26212;DHT22;13951;49.516;6.094;2024-03-06T01:38:54;4.80;99.90
26212;DHT22;13951;49.516;6.094;2024-03-06T01:41:27;4.80;99.90
26212;DHT22;13951;49.516;6.094;2024-03-06T01:44:01;4.70;99.90
26212;DHT22;13951;49.516;6.094;2024-03-06T01:46:36;4.80;99.90
26212;DHT22;13951;49.516;6.094;2024-03-06T01:49:13;4.80;99.90
26212;DHT22;13951;49.516;6.094;2024-03-06T01:52:01;4.80;99.90
26212;DHT22;13951;49.516;6.094;2024-03-06T01:54:35;4.80;99.90
26212;DHT22;13951;49.516;6.094;2024-03-06T01:57:10;4.70;99.90
26212;DHT22;13951;49.516;6.094;2024-03-06T01:59:45;4.80;99.90
26212;DHT22;13951;49.516;6.094;2024-03-06T02:02:19;4.70;99.90
26212;DHT22;13951;49.516;6.094;2024-03-06T02:04:54;4.70;99.90
26212;DHT22;13951;49.516;6.094;2024-03-06T02:07:28;4.60;99.90
26212;DHT22;13951;49.516;6.094;2024-03-06T02:10:07;4.60;99.90
26212;DHT22;13951;49.516;6.094;2024-03-06T02:12:41;4.60;99.90
26212;DHT22;13951;49.516;6.094;2024-03-06T02:15:15;4.50;99.90
26212;DHT22;13951;49.516;6.094;2024-03-06T02:17:50;4.60;99.90
26212;DHT22;13951;49.516;6.094;2024-03-06T02:20:24;4.60;99.90
26212;DHT22;13951;49.516;6.094;2024-03-06T02:22:58;4.60;99.90
26212;DHT22;13951;49.516;6.094;2024-03-06T02:25:31;4.60;99.90
26212;DHT22;13951;49.516;6.094;2024-03-06T02:28:05;4.60;99.90
26212;DHT22;13951;49.516;6.094;2024-03-06T02:30:39;4.70;99.90
26212;DHT22;13951;49.516;6.094;2024-03-06T02:33:14;4.80;99.90
26212;DHT22;13951;49.516;6.094;2024-03-06T02:35:48;4.80;99.90
26212;DHT22;13951;49.516;6.094;2024-03-06T02:38:21;4.80;99.90
26212;DHT22;13951;49.516;6.094;2024-03-06T02:40:54;4.80;99.90
26212;DHT22;13951;49.516;6.094;2024-03-06T02:43:28;4.90;99.90
26212;DHT22;13951;49.516;6.094;2024-03-06T02:46:01;4.90;99.90
26212;DHT22;13951;49.516;6.094;2024-03-06T02:48:35;4.80;99.90
26212;DHT22;13951;49.516;6.094;2024-03-06T02:51:08;4.80;99.90
26212;DHT22;13951;49.516;6.094;2024-03-06T02:53:42;4.80;99.90
26212;DHT22;13951;49.516;6.094;2024-03-06T02:56:16;4.70;99.90
26212;DHT22;13951;49.516;6.094;2024-03-06T02:58:50;4.70;99.90
26212;DHT22;13951;49.516;6.094;2024-03-06T03:01:23;4.60;99.90
26212;DHT22;13951;49.516;6.094;2024-03-06T03:03:57;4.60;99.90
26212;DHT22;13951;49.516;6.094;2024-03-06T03:06:30;4.50;99.90
26212;DHT22;13951;49.516;6.094;2024-03-06T03:09:04;4.40;99.90
26212;DHT22;13951;49.516;6.094;2024-03-06T03:11:38;4.40;99.90
26212;DHT22;13951;49.516;6.094;2024-03-06T03:14:11;4.30;99.90
26212;DHT22;13951;49.516;6.094;2024-03-06T03:16:45;4.30;99.90
26212;DHT22;13951;49.516;6.094;2024-03-06T03:19:18;4.30;99.90
26212;DHT22;13951;49.516;6.094;2024-03-06T03:21:51;4.30;99.90
26212;DHT22;13951;49.516;6.094;2024-03-06T03:24:25;4.30;99.90
26212;DHT22;13951;49.516;6.094;2024-03-06T03:27:03;4.30;99.90
26212;DHT22;13951;49.516;6.094;2024-03-06T03:29:36;4.30;99.90
26212;DHT22;13951;49.516;6.094;2024-03-06T03:32:09;4.30;99.90
26212;DHT22;13951;49.516;6.094;2024-03-06T03:34:43;4.20;99.90
26212;DHT22;13951;49.516;6.094;2024-03-06T03:37:16;4.20;99.90
26212;DHT22;13951;49.516;6.094;2024-03-06T03:39:50;4.30;99.90
26212;DHT22;13951;49.516;6.094;2024-03-06T03:42:24;4.20;99.90
26212;DHT22;13951;49.516;6.094;2024-03-06T03:44:58;4.20;99.90
26212;DHT22;13951;49.516;6.094;2024-03-06T03:47:32;4.20;99.90
26212;DHT22;13951;49.516;6.094;2024-03-06T03:50:06;4.10;99.90
26212;DHT22;13951;49.516;6.094;2024-03-06T03:52:43;4.00;99.90
26212;DHT22;13951;49.516;6.094;2024-03-06T03:55:17;4.00;99.90
26212;DHT22;13951;49.516;6.094;2024-03-06T03:57:50;3.90;99.90
26212;DHT22;13951;49.516;6.094;2024-03-06T04:00:25;3.90;99.90
26212;DHT22;13951;49.516;6.094;2024-03-06T04:02:58;3.80;99.90
26212;DHT22;13951;49.516;6.094;2024-03-06T04:05:33;3.80;99.90
26212;DHT22;13951;49.516;6.094;2024-03-06T04:08:06;3.70;99.90
26212;DHT22;13951;49.516;6.094;2024-03-06T04:10:41;3.70;99.90
26212;DHT22;13951;49.516;6.094;2024-03-06T04:13:15;3.70;99.90
26212;DHT22;13951;49.516;6.094;2024-03-06T04:15:49;3.60;99.90
26212;DHT22;13951;49.516;6.094;2024-03-06T04:18:24;3.50;99.90
26212;DHT22;13951;49.516;6.094;2024-03-06T04:20:57;3.50;99.90
26212;DHT22;13951;49.516;6.094;2024-03-06T04:23:31;3.50;99.90
26212;DHT22;13951;49.516;6.094;2024-03-06T04:26:05;3.40;99.90
26212;DHT22;13951;49.516;6.094;2024-03-06T04:28:40;3.40;99.90
26212;DHT22;13951;49.516;6.094;2024-03-06T04:31:13;3.30;99.90
26212;DHT22;13951;49.516;6.094;2024-03-06T04:33:46;3.40;99.90
26212;DHT22;13951;49.516;6.094;2024-03-06T04:36:20;3.40;99.90
26212;DHT22;13951;49.516;6.094;2024-03-06T04:38:53;3.30;99.90
26212;DHT22;13951;49.516;6.094;2024-03-06T04:41:27;3.30;99.90
26212;DHT22;13951;49.516;6.094;2024-03-06T04:44:00;3.30;99.90
26212;DHT22;13951;49.516;6.094;2024-03-06T04:46:34;3.30;99.90
26212;DHT22;13951;49.516;6.094;2024-03-06T04:49:08;3.30;99.90
26212;DHT22;13951;49.516;6.094;2024-03-06T04:51:41;3.40;99.90
26212;DHT22;13951;49.516;6.094;2024-03-06T04:54:14;3.40;99.90
26212;DHT22;13951;49.516;6.094;2024-03-06T04:56:48;3.40;99.90
26212;DHT22;13951;49.516;6.094;2024-03-06T04:59:21;3.40;99.90
26212;DHT22;13951;49.516;6.094;2024-03-06T05:01:54;3.40;99.90
26212;DHT22;13951;49.516;6.094;2024-03-06T05:04:28;3.40;99.90
26212;DHT22;13951;49.516;6.094;2024-03-06T05:07:15;3.30;99.90
26212;DHT22;13951;49.516;6.094;2024-03-06T05:10:03;3.30;99.90
26212;DHT22;13951;49.516;6.094;2024-03-06T05:12:50;3.30;99.90
26212;DHT22;13951;49.516;6.094;2024-03-06T05:15:37;3.30;99.90
26212;DHT22;13951;49.516;6.094;2024-03-06T05:18:28;3.20;99.90
26212;DHT22;13951;49.516;6.094;2024-03-06T05:21:15;3.20;99.90
26212;DHT22;13951;49.516;6.094;2024-03-06T05:24:02;3.10;99.90
26212;DHT22;13951;49.516;6.094;2024-03-06T05:26:51;3.10;99.90
26212;DHT22;13951;49.516;6.094;2024-03-06T05:29:38;3.10;99.90
26212;DHT22;13951;49.516;6.094;2024-03-06T05:32:25;3.10;99.90
26212;DHT22;13951;49.516;6.094;2024-03-06T05:35:13;3.20;99.90
26212;DHT22;13951;49.516;6.094;2024-03-06T05:38:00;3.10;99.90
26212;DHT22;13951;49.516;6.094;2024-03-06T05:40:47;3.10;99.90
26212;DHT22;13951;49.516;6.094;2024-03-06T05:43:34;3.20;99.90
26212;DHT22;13951;49.516;6.094;2024-03-06T05:46:21;3.10;99.90
26212;DHT22;13951;49.516;6.094;2024-03-06T05:49:08;3.10;99.90
26212;DHT22;13951;49.516;6.094;2024-03-06T05:51:56;3.10;99.90
26212;DHT22;13951;49.516;6.094;2024-03-06T05:54:44;3.00;99.90
26212;DHT22;13951;49.516;6.094;2024-03-06T06:00:33;2.90;99.90
26212;DHT22;13951;49.516;6.094;2024-03-06T06:03:08;3.00;99.90
26212;DHT22;13951;49.516;6.094;2024-03-06T06:08:14;2.90;99.90
26212;DHT22;13951;49.516;6.094;2024-03-06T06:10:48;2.90;99.90
26212;DHT22;13951;49.516;6.094;2024-03-06T06:13:25;2.80;99.90
26212;DHT22;13951;49.516;6.094;2024-03-06T06:15:58;2.80;99.90
26212;DHT22;13951;49.516;6.094;2024-03-06T06:18:36;2.80;99.90
26212;DHT22;13951;49.516;6.094;2024-03-06T06:21:10;2.80;99.90
26212;DHT22;13951;49.516;6.094;2024-03-06T06:23:44;2.80;99.90
26212;DHT22;13951;49.516;6.094;2024-03-06T06:26:18;2.90;99.90
26212;DHT22;13951;49.516;6.094;2024-03-06T06:31:26;2.90;99.90
26212;DHT22;13951;49.516;6.094;2024-03-06T06:34:00;2.90;99.90
26212;DHT22;13951;49.516;6.094;2024-03-06T06:36:34;2.90;99.90
26212;DHT22;13951;49.516;6.094;2024-03-06T06:39:08;2.90;99.90
26212;DHT22;13951;49.516;6.094;2024-03-06T06:41:41;2.90;99.90
26212;DHT22;13951;49.516;6.094;2024-03-06T06:44:16;2.90;99.90
26212;DHT22;13951;49.516;6.094;2024-03-06T06:46:49;2.90;99.90
26212;DHT22;13951;49.516;6.094;2024-03-06T06:49:23;2.90;99.90
26212;DHT22;13951;49.516;6.094;2024-03-06T06:51:57;2.90;99.90
26212;DHT22;13951;49.516;6.094;2024-03-06T06:54:30;2.90;99.90
26212;DHT22;13951;49.516;6.094;2024-03-06T06:57:04;2.90;99.90
26212;DHT22;13951;49.516;6.094;2024-03-06T06:59:38;2.90;99.90
26212;DHT22;13951;49.516;6.094;2024-03-06T07:02:16;2.90;99.90
26212;DHT22;13951;49.516;6.094;2024-03-06T07:04:51;2.90;99.90
26212;DHT22;13951;49.516;6.094;2024-03-06T07:07:24;2.90;99.90
26212;DHT22;13951;49.516;6.094;2024-03-06T07:09:58;2.90;99.90
26212;DHT22;13951;49.516;6.094;2024-03-06T07:12:35;2.90;99.90
26212;DHT22;13951;49.516;6.094;2024-03-06T07:15:08;3.00;99.90
26212;DHT22;13951;49.516;6.094;2024-03-06T07:17:42;3.10;99.90
26212;DHT22;13951;49.516;6.094;2024-03-06T07:20:17;3.10;99.90
26212;DHT22;13951;49.516;6.094;2024-03-06T07:22:50;3.10;99.90
26212;DHT22;13951;49.516;6.094;2024-03-06T07:25:25;3.10;99.90
26212;DHT22;13951;49.516;6.094;2024-03-06T07:28:03;3.20;99.90
26212;DHT22;13951;49.516;6.094;2024-03-06T07:30:38;3.20;99.90
26212;DHT22;13951;49.516;6.094;2024-03-06T07:33:11;3.30;99.90
26212;DHT22;13951;49.516;6.094;2024-03-06T07:35:46;3.30;99.90
26212;DHT22;13951;49.516;6.094;2024-03-06T07:38:20;3.30;99.90
26212;DHT22;13951;49.516;6.094;2024-03-06T07:40:53;3.40;99.90
26212;DHT22;13951;49.516;6.094;2024-03-06T07:43:28;3.40;99.90
26212;DHT22;13951;49.516;6.094;2024-03-06T07:46:03;3.50;99.90
26212;DHT22;13951;49.516;6.094;2024-03-06T07:48:37;3.40;99.90
26212;DHT22;13951;49.516;6.094;2024-03-06T07:51:12;3.50;99.90
26212;DHT22;13951;49.516;6.094;2024-03-06T07:53:47;3.40;99.90
26212;DHT22;13951;49.516;6.094;2024-03-06T07:56:20;3.50;99.90
26212;DHT22;13951;49.516;6.094;2024-03-06T07:59:00;3.50;99.90
26212;DHT22;13951;49.516;6.094;2024-03-06T08:01:33;3.60;99.90
26212;DHT22;13951;49.516;6.094;2024-03-06T08:04:07;3.50;99.90
26212;DHT22;13951;49.516;6.094;2024-03-06T08:06:40;3.50;99.90
26212;DHT22;13951;49.516;6.094;2024-03-06T08:09:13;3.60;99.90
26212;DHT22;13951;49.516;6.094;2024-03-06T08:11:48;3.60;99.90
26212;DHT22;13951;49.516;6.094;2024-03-06T08:14:23;3.60;99.90
26212;DHT22;13951;49.516;6.094;2024-03-06T08:17:00;3.80;99.90
26212;DHT22;13951;49.516;6.094;2024-03-06T08:19:34;3.70;99.90
26212;DHT22;13951;49.516;6.094;2024-03-06T08:22:09;3.80;99.90
26212;DHT22;13951;49.516;6.094;2024-03-06T08:24:43;3.90;99.90
26212;DHT22;13951;49.516;6.094;2024-03-06T08:27:16;4.10;99.90
26212;DHT22;13951;49.516;6.094;2024-03-06T08:29:50;4.40;99.90
26212;DHT22;13951;49.516;6.094;2024-03-06T08:32:26;4.60;99.90
26212;DHT22;13951;49.516;6.094;2024-03-06T08:35:02;4.70;99.90
26212;DHT22;13951;49.516;6.094;2024-03-06T08:37:36;4.90;99.90
26212;DHT22;13951;49.516;6.094;2024-03-06T08:40:11;5.10;99.90
26212;DHT22;13951;49.516;6.094;2024-03-06T08:42:48;5.30;99.90
26212;DHT22;13951;49.516;6.094;2024-03-06T08:45:22;5.40;99.90
26212;DHT22;13951;49.516;6.094;2024-03-06T08:47:58;5.50;99.90
26212;DHT22;13951;49.516;6.094;2024-03-06T08:50:40;5.70;99.90
26212;DHT22;13951;49.516;6.094;2024-03-06T08:53:16;5.80;99.90
26212;DHT22;13951;49.516;6.094;2024-03-06T08:55:50;6.00;99.90
26212;DHT22;13951;49.516;6.094;2024-03-06T08:58:27;6.10;99.90
26212;DHT22;13951;49.516;6.094;2024-03-06T09:01:00;6.20;99.90
26212;DHT22;13951;49.516;6.094;2024-03-06T09:03:35;6.30;99.90
26212;DHT22;13951;49.516;6.094;2024-03-06T09:06:08;6.50;99.90
26212;DHT22;13951;49.516;6.094;2024-03-06T09:08:44;6.50;99.90
26212;DHT22;13951;49.516;6.094;2024-03-06T09:11:18;6.60;99.90
26212;DHT22;13951;49.516;6.094;2024-03-06T09:13:51;6.80;99.90
26212;DHT22;13951;49.516;6.094;2024-03-06T09:16:24;6.90;99.90
26212;DHT22;13951;49.516;6.094;2024-03-06T09:18:58;6.90;99.90
26212;DHT22;13951;49.516;6.094;2024-03-06T09:21:31;7.00;99.90
26212;DHT22;13951;49.516;6.094;2024-03-06T09:24:05;7.20;99.90
26212;DHT22;13951;49.516;6.094;2024-03-06T09:26:39;7.30;99.90
26212;DHT22;13951;49.516;6.094;2024-03-06T09:29:14;7.30;99.90
26212;DHT22;13951;49.516;6.094;2024-03-06T09:31:48;7.30;99.90
26212;DHT22;13951;49.516;6.094;2024-03-06T09:34:24;7.30;99.90
26212;DHT22;13951;49.516;6.094;2024-03-06T09:36:57;7.30;99.90
26212;DHT22;13951;49.516;6.094;2024-03-06T09:39:30;7.40;99.90
26212;DHT22;13951;49.516;6.094;2024-03-06T09:42:04;7.40;99.90
26212;DHT22;13951;49.516;6.094;2024-03-06T09:44:42;7.50;99.90
26212;DHT22;13951;49.516;6.094;2024-03-06T09:47:20;7.60;99.90
26212;DHT22;13951;49.516;6.094;2024-03-06T09:49:56;7.80;99.90
26212;DHT22;13951;49.516;6.094;2024-03-06T09:52:30;7.90;99.90
26212;DHT22;13951;49.516;6.094;2024-03-06T09:55:04;7.80;99.90
26212;DHT22;13951;49.516;6.094;2024-03-06T09:57:38;7.80;99.90
26212;DHT22;13951;49.516;6.094;2024-03-06T10:00:12;7.90;99.90
26212;DHT22;13951;49.516;6.094;2024-03-06T10:03:01;8.00;99.90
26212;DHT22;13951;49.516;6.094;2024-03-06T10:05:36;8.10;99.90
26212;DHT22;13951;49.516;6.094;2024-03-06T10:08:09;8.20;99.90
26212;DHT22;13951;49.516;6.094;2024-03-06T10:10:43;8.30;99.90
26212;DHT22;13951;49.516;6.094;2024-03-06T10:13:28;8.40;99.90
26212;DHT22;13951;49.516;6.094;2024-03-06T10:16:04;8.50;99.90
26212;DHT22;13951;49.516;6.094;2024-03-06T10:18:37;8.50;99.90
26212;DHT22;13951;49.516;6.094;2024-03-06T10:21:14;8.60;99.90
26212;DHT22;13951;49.516;6.094;2024-03-06T10:23:47;8.70;99.90
26212;DHT22;13951;49.516;6.094;2024-03-06T10:26:21;8.70;99.90
26212;DHT22;13951;49.516;6.094;2024-03-06T10:28:56;8.70;99.90
26212;DHT22;13951;49.516;6.094;2024-03-06T10:31:29;8.90;99.90
26212;DHT22;13951;49.516;6.094;2024-03-06T10:34:03;9.10;99.90
26212;DHT22;13951;49.516;6.094;2024-03-06T10:36:37;9.20;99.90
26212;DHT22;13951;49.516;6.094;2024-03-06T10:39:12;9.30;99.90
26212;DHT22;13951;49.516;6.094;2024-03-06T10:41:55;9.20;99.90
26212;DHT22;13951;49.516;6.094;2024-03-06T10:44:28;9.20;99.90
26212;DHT22;13951;49.516;6.094;2024-03-06T10:47:06;9.30;99.90
26212;DHT22;13951;49.516;6.094;2024-03-06T10:49:43;9.40;99.90
26212;DHT22;13951;49.516;6.094;2024-03-06T10:52:19;9.50;99.90
26212;DHT22;13951;49.516;6.094;2024-03-06T10:54:53;9.50;99.90
26212;DHT22;13951;49.516;6.094;2024-03-06T10:57:26;9.60;99.90
26212;DHT22;13951;49.516;6.094;2024-03-06T11:00:02;9.60;99.90
26212;DHT22;13951;49.516;6.094;2024-03-06T11:02:39;9.70;99.90
26212;DHT22;13951;49.516;6.094;2024-03-06T11:05:14;9.70;99.90
26212;DHT22;13951;49.516;6.094;2024-03-06T11:07:47;9.60;99.90
26212;DHT22;13951;49.516;6.094;2024-03-06T11:10:32;9.50;99.90
26212;DHT22;13951;49.516;6.094;2024-03-06T11:13:24;9.50;99.90
26212;DHT22;13951;49.516;6.094;2024-03-06T11:16:08;9.40;99.90
26212;DHT22;13951;49.516;6.094;2024-03-06T11:18:42;9.10;99.90
26212;DHT22;13951;49.516;6.094;2024-03-06T11:24:20;9.10;99.90
26212;DHT22;13951;49.516;6.094;2024-03-06T11:26:56;9.10;99.90
26212;DHT22;13951;49.516;6.094;2024-03-06T11:33:01;9.00;99.90
26212;DHT22;13951;49.516;6.094;2024-03-06T11:35:35;9.10;99.90
26212;DHT22;13951;49.516;6.094;2024-03-06T11:38:10;9.00;99.90
26212;DHT22;13951;49.516;6.094;2024-03-06T11:40:44;9.00;99.90
26212;DHT22;13951;49.516;6.094;2024-03-06T11:43:24;9.00;99.90
26212;DHT22;13951;49.516;6.094;2024-03-06T11:46:09;9.20;99.90
26212;DHT22;13951;49.516;6.094;2024-03-06T11:48:42;9.30;99.90
26212;DHT22;13951;49.516;6.094;2024-03-06T11:51:27;9.40;99.90
26212;DHT22;13951;49.516;6.094;2024-03-06T11:54:05;9.30;99.90
26212;DHT22;13951;49.516;6.094;2024-03-06T11:56:45;9.40;99.90
26212;DHT22;13951;49.516;6.094;2024-03-06T11:59:24;9.50;99.90
26212;DHT22;13951;49.516;6.094;2024-03-06T12:02:01;9.70;99.90
26212;DHT22;13951;49.516;6.094;2024-03-06T12:04:35;9.80;99.90
26212;DHT22;13951;49.516;6.094;2024-03-06T12:07:12;9.90;99.90
26212;DHT22;13951;49.516;6.094;2024-03-06T12:09:46;9.90;99.90
26212;DHT22;13951;49.516;6.094;2024-03-06T12:12:19;9.90;99.90
26212;DHT22;13951;49.516;6.094;2024-03-06T12:14:59;9.80;99.90
26212;DHT22;13951;49.516;6.094;2024-03-06T12:17:44;9.80;99.90
26212;DHT22;13951;49.516;6.094;2024-03-06T12:20:42;9.80;99.90
26212;DHT22;13951;49.516;6.094;2024-03-06T12:23:23;9.70;99.90
26212;DHT22;13951;49.516;6.094;2024-03-06T12:26:06;9.60;99.90
26212;DHT22;13951;49.516;6.094;2024-03-06T12:28:42;9.60;99.90
26212;DHT22;13951;49.516;6.094;2024-03-06T12:31:16;9.60;99.90
26212;DHT22;13951;49.516;6.094;2024-03-06T12:33:57;9.70;99.90
26212;DHT22;13951;49.516;6.094;2024-03-06T12:36:34;9.80;99.90
26212;DHT22;13951;49.516;6.094;2024-03-06T12:39:09;9.90;99.90
26212;DHT22;13951;49.516;6.094;2024-03-06T12:41:46;9.90;99.90
26212;DHT22;13951;49.516;6.094;2024-03-06T12:44:19;10.00;99.90
26212;DHT22;13951;49.516;6.094;2024-03-06T12:46:54;10.10;99.90
26212;DHT22;13951;49.516;6.094;2024-03-06T12:49:27;10.20;99.90
26212;DHT22;13951;49.516;6.094;2024-03-06T12:52:01;10.20;99.90
26212;DHT22;13951;49.516;6.094;2024-03-06T12:54:38;10.40;99.90
26212;DHT22;13951;49.516;6.094;2024-03-06T12:57:14;10.50;99.90
26212;DHT22;13951;49.516;6.094;2024-03-06T12:59:47;10.40;99.90
26212;DHT22;13951;49.516;6.094;2024-03-06T13:02:20;10.40;99.90
26212;DHT22;13951;49.516;6.094;2024-03-06T13:04:54;10.50;99.90
26212;DHT22;13951;49.516;6.094;2024-03-06T13:07:27;10.60;99.90
26212;DHT22;13951;49.516;6.094;2024-03-06T13:10:03;10.70;99.90
26212;DHT22;13951;49.516;6.094;2024-03-06T13:12:38;10.90;99.90
26212;DHT22;13951;49.516;6.094;2024-03-06T13:15:11;11.10;99.90
26212;DHT22;13951;49.516;6.094;2024-03-06T13:17:45;11.10;99.90
26212;DHT22;13951;49.516;6.094;2024-03-06T13:20:19;11.10;99.90
26212;DHT22;13951;49.516;6.094;2024-03-06T13:22:54;11.00;99.90
26212;DHT22;13951;49.516;6.094;2024-03-06T13:25:27;11.00;99.90
26212;DHT22;13951;49.516;6.094;2024-03-06T13:28:02;11.00;99.90
26212;DHT22;13951;49.516;6.094;2024-03-06T13:30:36;11.00;99.90
26212;DHT22;13951;49.516;6.094;2024-03-06T13:33:11;11.00;99.90
26212;DHT22;13951;49.516;6.094;2024-03-06T13:35:45;11.00;99.90
26212;DHT22;13951;49.516;6.094;2024-03-06T13:38:19;11.00;99.90
26212;DHT22;13951;49.516;6.094;2024-03-06T13:40:54;11.00;99.90
26212;DHT22;13951;49.516;6.094;2024-03-06T13:43:29;10.90;99.90
26212;DHT22;13951;49.516;6.094;2024-03-06T13:46:02;10.90;99.90
26212;DHT22;13951;49.516;6.094;2024-03-06T13:48:37;10.90;99.90
26212;DHT22;13951;49.516;6.094;2024-03-06T13:51:11;10.80;99.90
26212;DHT22;13951;49.516;6.094;2024-03-06T13:53:44;10.80;99.90
26212;DHT22;13951;49.516;6.094;2024-03-06T13:56:18;10.70;99.90
26212;DHT22;13951;49.516;6.094;2024-03-06T13:58:57;10.70;99.90
26212;DHT22;13951;49.516;6.094;2024-03-06T14:01:30;10.70;99.90
26212;DHT22;13951;49.516;6.094;2024-03-06T14:04:07;10.70;99.90
26212;DHT22;13951;49.516;6.094;2024-03-06T14:06:40;10.80;99.90
26212;DHT22;13951;49.516;6.094;2024-03-06T14:09:14;10.70;99.90
26212;DHT22;13951;49.516;6.094;2024-03-06T14:11:48;10.60;99.90
26212;DHT22;13951;49.516;6.094;2024-03-06T14:14:21;10.50;99.90
26212;DHT22;13951;49.516;6.094;2024-03-06T14:16:55;10.50;99.90
26212;DHT22;13951;49.516;6.094;2024-03-06T14:19:29;10.30;99.90
26212;DHT22;13951;49.516;6.094;2024-03-06T14:22:02;10.30;99.90
26212;DHT22;13951;49.516;6.094;2024-03-06T14:24:41;10.30;99.90
26212;DHT22;13951;49.516;6.094;2024-03-06T14:27:15;10.30;99.90
26212;DHT22;13951;49.516;6.094;2024-03-06T14:29:49;10.30;99.90
26212;DHT22;13951;49.516;6.094;2024-03-06T14:32:23;10.20;99.90
26212;DHT22;13951;49.516;6.094;2024-03-06T14:34:58;10.20;99.90
26212;DHT22;13951;49.516;6.094;2024-03-06T14:37:33;10.10;99.90
26212;DHT22;13951;49.516;6.094;2024-03-06T14:40:10;10.10;99.90
26212;DHT22;13951;49.516;6.094;2024-03-06T14:42:45;10.10;99.90
26212;DHT22;13951;49.516;6.094;2024-03-06T14:45:20;10.00;99.90
26212;DHT22;13951;49.516;6.094;2024-03-06T14:47:53;9.90;99.90
26212;DHT22;13951;49.516;6.094;2024-03-06T14:50:28;9.90;99.90
26212;DHT22;13951;49.516;6.094;2024-03-06T14:53:01;9.80;99.90
26212;DHT22;13951;49.516;6.094;2024-03-06T14:55:36;9.80;99.90
26212;DHT22;13951;49.516;6.094;2024-03-06T14:58:10;9.70;99.90
26212;DHT22;13951;49.516;6.094;2024-03-06T15:00:43;9.80;99.90
26212;DHT22;13951;49.516;6.094;2024-03-06T15:03:18;9.70;99.90
26212;DHT22;13951;49.516;6.094;2024-03-06T15:05:52;9.70;99.90
26212;DHT22;13951;49.516;6.094;2024-03-06T15:08:27;9.70;99.90
26212;DHT22;13951;49.516;6.094;2024-03-06T15:11:01;9.70;99.90
26212;DHT22;13951;49.516;6.094;2024-03-06T15:13:34;9.70;99.90
26212;DHT22;13951;49.516;6.094;2024-03-06T15:16:07;9.60;99.90
26212;DHT22;13951;49.516;6.094;2024-03-06T15:18:45;9.60;99.90
26212;DHT22;13951;49.516;6.094;2024-03-06T15:21:20;9.60;99.90
26212;DHT22;13951;49.516;6.094;2024-03-06T15:23:53;9.60;99.90
26212;DHT22;13951;49.516;6.094;2024-03-06T15:26:27;9.60;99.90
26212;DHT22;13951;49.516;6.094;2024-03-06T15:29:00;9.60;99.90
26212;DHT22;13951;49.516;6.094;2024-03-06T15:31:34;9.60;99.90
26212;DHT22;13951;49.516;6.094;2024-03-06T15:34:08;9.60;99.90
26212;DHT22;13951;49.516;6.094;2024-03-06T15:36:41;9.60;99.90
26212;DHT22;13951;49.516;6.094;2024-03-06T15:39:16;9.60;99.90
26212;DHT22;13951;49.516;6.094;2024-03-06T15:41:50;9.60;99.90
26212;DHT22;13951;49.516;6.094;2024-03-06T15:44:29;9.60;99.90
26212;DHT22;13951;49.516;6.094;2024-03-06T15:47:03;9.50;99.90
26212;DHT22;13951;49.516;6.094;2024-03-06T15:49:43;9.50;99.90
26212;DHT22;13951;49.516;6.094;2024-03-06T15:52:17;9.60;99.90
26212;DHT22;13951;49.516;6.094;2024-03-06T15:54:51;9.60;99.90
26212;DHT22;13951;49.516;6.094;2024-03-06T15:57:27;9.60;99.90
26212;DHT22;13951;49.516;6.094;2024-03-06T16:00:03;9.50;99.90
26212;DHT22;13951;49.516;6.094;2024-03-06T16:02:40;9.50;99.90
26212;DHT22;13951;49.516;6.094;2024-03-06T16:05:15;9.50;99.90
26212;DHT22;13951;49.516;6.094;2024-03-06T16:07:51;9.40;99.90
26212;DHT22;13951;49.516;6.094;2024-03-06T16:10:36;9.50;99.90
26212;DHT22;13951;49.516;6.094;2024-03-06T16:13:09;9.50;99.90
26212;DHT22;13951;49.516;6.094;2024-03-06T16:15:43;9.50;99.90
26212;DHT22;13951;49.516;6.094;2024-03-06T16:18:16;9.50;99.90
26212;DHT22;13951;49.516;6.094;2024-03-06T16:20:51;9.50;99.90
26212;DHT22;13951;49.516;6.094;2024-03-06T16:23:26;9.50;99.90
26212;DHT22;13951;49.516;6.094;2024-03-06T16:25:59;9.50;99.90
26212;DHT22;13951;49.516;6.094;2024-03-06T16:28:34;9.50;99.90
26212;DHT22;13951;49.516;6.094;2024-03-06T16:31:09;9.50;99.90
26212;DHT22;13951;49.516;6.094;2024-03-06T16:33:42;9.50;99.90
26212;DHT22;13951;49.516;6.094;2024-03-06T16:36:18;9.60;99.90
26212;DHT22;13951;49.516;6.094;2024-03-06T16:38:53;9.60;99.90
26212;DHT22;13951;49.516;6.094;2024-03-06T16:41:27;9.60;99.90
26212;DHT22;13951;49.516;6.094;2024-03-06T16:44:01;9.60;99.90
26212;DHT22;13951;49.516;6.094;2024-03-06T16:46:39;9.60;99.90
26212;DHT22;13951;49.516;6.094;2024-03-06T16:49:25;9.60;99.90
26212;DHT22;13951;49.516;6.094;2024-03-06T16:52:00;9.50;99.90